sensor_id;sensor_type;location;lat;lon;timestamp;P1;durP1;ratioP1;P2;durP2;ratioP2
26488;SDS011;14169;43.684;10.484;2022-08-19T00:00:33;16.98;;;7.18;;
26488;SDS011;14169;43.684;10.484;2022-08-19T00:03:00;13.10;;;7.70;;
26488;SDS011;14169;43.684;10.484;2022-08-19T00:05:25;15.60;;;7.22;;
26488;SDS011;14169;43.684;10.484;2022-08-19T00:07:51;12.90;;;7.95;;
26488;SDS011;14169;43.684;10.484;2022-08-19T00:10:17;11.32;;;7.75;;
26488;SDS011;14169;43.684;10.484;2022-08-19T00:12:44;10.77;;;7.72;;
26488;SDS011;14169;43.684;10.484;2022-08-19T00:15:11;13.18;;;7.88;;
26488;SDS011;14169;43.684;10.484;2022-08-19T00:17:39;16.48;;;8.70;;
26488;SDS011;14169;43.684;10.484;2022-08-19T00:20:06;13.70;;;9.25;;
26488;SDS011;14169;43.684;10.484;2022-08-19T00:22:33;18.23;;;9.10;;
26488;SDS011;14169;43.684;10.484;2022-08-19T00:24:58;11.80;;;7.75;;
26488;SDS011;14169;43.684;10.484;2022-08-19T00:27:24;14.15;;;8.35;;
26488;SDS011;14169;43.684;10.484;2022-08-19T00:29:49;16.05;;;9.50;;
26488;SDS011;14169;43.684;10.484;2022-08-19T00:32:15;16.80;;;8.80;;
26488;SDS011;14169;43.684;10.484;2022-08-19T00:34:41;13.98;;;7.88;;
26488;SDS011;14169;43.684;10.484;2022-08-19T00:37:07;11.55;;;8.15;;
26488;SDS011;14169;43.684;10.484;2022-08-19T00:39:32;14.30;;;7.85;;
26488;SDS011;14169;43.684;10.484;2022-08-19T00:41:57;13.98;;;7.55;;
26488;SDS011;14169;43.684;10.484;2022-08-19T00:44:24;17.23;;;7.30;;
26488;SDS011;14169;43.684;10.484;2022-08-19T00:46:53;14.38;;;7.93;;
26488;SDS011;14169;43.684;10.484;2022-08-19T00:51:51;13.73;;;8.43;;
26488;SDS011;14169;43.684;10.484;2022-08-19T00:54:20;17.08;;;9.07;;
26488;SDS011;14169;43.684;10.484;2022-08-19T00:56:46;17.77;;;10.07;;
26488;SDS011;14169;43.684;10.484;2022-08-19T00:59:13;13.93;;;10.15;;
26488;SDS011;14169;43.684;10.484;2022-08-19T01:01:41;23.75;;;12.27;;
26488;SDS011;14169;43.684;10.484;2022-08-19T01:04:08;14.65;;;11.23;;
26488;SDS011;14169;43.684;10.484;2022-08-19T01:06:38;27.67;;;12.20;;
26488;SDS011;14169;43.684;10.484;2022-08-19T01:09:06;15.38;;;8.25;;
26488;SDS011;14169;43.684;10.484;2022-08-19T01:11:33;8.00;;;6.35;;
26488;SDS011;14169;43.684;10.484;2022-08-19T01:14:01;8.68;;;7.15;;
26488;SDS011;14169;43.684;10.484;2022-08-19T01:16:28;9.43;;;5.35;;
26488;SDS011;14169;43.684;10.484;2022-08-19T01:18:56;11.65;;;4.43;;
26488;SDS011;14169;43.684;10.484;2022-08-19T01:21:24;6.68;;;4.28;;
26488;SDS011;14169;43.684;10.484;2022-08-19T01:23:56;8.50;;;4.93;;
26488;SDS011;14169;43.684;10.484;2022-08-19T01:26:23;12.75;;;4.68;;
26488;SDS011;14169;43.684;10.484;2022-08-19T01:28:51;6.80;;;3.95;;
26488;SDS011;14169;43.684;10.484;2022-08-19T01:31:23;5.43;;;4.05;;
26488;SDS011;14169;43.684;10.484;2022-08-19T01:33:51;8.60;;;4.93;;
26488;SDS011;14169;43.684;10.484;2022-08-19T01:36:32;8.55;;;5.78;;
26488;SDS011;14169;43.684;10.484;2022-08-19T01:39:01;8.88;;;6.75;;
26488;SDS011;14169;43.684;10.484;2022-08-19T01:41:29;9.05;;;6.35;;
26488;SDS011;14169;43.684;10.484;2022-08-19T01:43:55;8.43;;;6.60;;
26488;SDS011;14169;43.684;10.484;2022-08-19T01:46:21;12.07;;;6.93;;
26488;SDS011;14169;43.684;10.484;2022-08-19T01:48:47;9.57;;;7.07;;
26488;SDS011;14169;43.684;10.484;2022-08-19T01:51:13;7.95;;;6.57;;
26488;SDS011;14169;43.684;10.484;2022-08-19T01:53:40;9.68;;;6.55;;
26488;SDS011;14169;43.684;10.484;2022-08-19T01:56:06;9.93;;;7.03;;
26488;SDS011;14169;43.684;10.484;2022-08-19T01:58:36;9.10;;;7.63;;
26488;SDS011;14169;43.684;10.484;2022-08-19T02:01:06;9.07;;;7.72;;
26488;SDS011;14169;43.684;10.484;2022-08-19T02:03:32;10.25;;;7.25;;
26488;SDS011;14169;43.684;10.484;2022-08-19T02:05:58;9.48;;;8.20;;
26488;SDS011;14169;43.684;10.484;2022-08-19T02:08:29;11.82;;;8.25;;
26488;SDS011;14169;43.684;10.484;2022-08-19T02:10:55;11.02;;;8.57;;
26488;SDS011;14169;43.684;10.484;2022-08-19T02:13:21;13.80;;;9.00;;
26488;SDS011;14169;43.684;10.484;2022-08-19T02:15:47;12.63;;;9.18;;
26488;SDS011;14169;43.684;10.484;2022-08-19T02:18:13;11.70;;;8.55;;
26488;SDS011;14169;43.684;10.484;2022-08-19T02:20:39;13.18;;;10.65;;
26488;SDS011;14169;43.684;10.484;2022-08-19T02:23:07;11.80;;;10.65;;
26488;SDS011;14169;43.684;10.484;2022-08-19T02:25:32;12.93;;;11.15;;
26488;SDS011;14169;43.684;10.484;2022-08-19T02:27:58;13.45;;;11.32;;
26488;SDS011;14169;43.684;10.484;2022-08-19T02:30:24;13.80;;;12.48;;
26488;SDS011;14169;43.684;10.484;2022-08-19T02:32:50;14.15;;;11.90;;
26488;SDS011;14169;43.684;10.484;2022-08-19T02:35:16;11.43;;;10.07;;
26488;SDS011;14169;43.684;10.484;2022-08-19T02:37:42;17.63;;;12.57;;
26488;SDS011;14169;43.684;10.484;2022-08-19T02:40:27;13.88;;;12.35;;
26488;SDS011;14169;43.684;10.484;2022-08-19T02:42:54;14.25;;;12.63;;
26488;SDS011;14169;43.684;10.484;2022-08-19T02:45:19;18.08;;;13.00;;
26488;SDS011;14169;43.684;10.484;2022-08-19T02:47:45;13.48;;;11.85;;
26488;SDS011;14169;43.684;10.484;2022-08-19T02:50:11;13.68;;;12.32;;
26488;SDS011;14169;43.684;10.484;2022-08-19T02:52:36;13.65;;;12.25;;
26488;SDS011;14169;43.684;10.484;2022-08-19T02:55:02;13.23;;;11.88;;
26488;SDS011;14169;43.684;10.484;2022-08-19T02:57:29;11.85;;;9.68;;
26488;SDS011;14169;43.684;10.484;2022-08-19T02:59:56;10.60;;;9.65;;
26488;SDS011;14169;43.684;10.484;2022-08-19T03:02:21;13.40;;;10.23;;
26488;SDS011;14169;43.684;10.484;2022-08-19T03:04:47;11.45;;;9.52;;
26488;SDS011;14169;43.684;10.484;2022-08-19T03:07:13;10.25;;;9.15;;
26488;SDS011;14169;43.684;10.484;2022-08-19T03:09:39;11.15;;;8.55;;
26488;SDS011;14169;43.684;10.484;2022-08-19T03:12:06;9.98;;;7.30;;
26488;SDS011;14169;43.684;10.484;2022-08-19T03:14:32;15.35;;;8.68;;
26488;SDS011;14169;43.684;10.484;2022-08-19T03:16:58;13.10;;;9.43;;
26488;SDS011;14169;43.684;10.484;2022-08-19T03:19:24;9.43;;;8.48;;
26488;SDS011;14169;43.684;10.484;2022-08-19T03:21:50;9.43;;;8.18;;
26488;SDS011;14169;43.684;10.484;2022-08-19T03:24:17;8.73;;;7.20;;
26488;SDS011;14169;43.684;10.484;2022-08-19T03:26:45;9.43;;;5.75;;
26488;SDS011;14169;43.684;10.484;2022-08-19T03:29:12;7.00;;;6.30;;
26488;SDS011;14169;43.684;10.484;2022-08-19T03:31:39;15.80;;;6.75;;
26488;SDS011;14169;43.684;10.484;2022-08-19T03:34:06;9.70;;;6.22;;
26488;SDS011;14169;43.684;10.484;2022-08-19T03:36:32;11.25;;;6.88;;
26488;SDS011;14169;43.684;10.484;2022-08-19T03:38:59;9.52;;;6.32;;
26488;SDS011;14169;43.684;10.484;2022-08-19T03:41:30;13.70;;;6.75;;
26488;SDS011;14169;43.684;10.484;2022-08-19T03:43:58;10.68;;;6.45;;
26488;SDS011;14169;43.684;10.484;2022-08-19T03:46:27;10.75;;;5.93;;
26488;SDS011;14169;43.684;10.484;2022-08-19T03:48:55;11.23;;;7.13;;
26488;SDS011;14169;43.684;10.484;2022-08-19T03:51:24;11.13;;;6.10;;
26488;SDS011;14169;43.684;10.484;2022-08-19T03:53:52;10.35;;;6.05;;
26488;SDS011;14169;43.684;10.484;2022-08-19T03:56:18;9.13;;;5.45;;
26488;SDS011;14169;43.684;10.484;2022-08-19T03:58:44;8.80;;;5.10;;
26488;SDS011;14169;43.684;10.484;2022-08-19T04:01:10;7.40;;;4.88;;
26488;SDS011;14169;43.684;10.484;2022-08-19T04:03:37;7.93;;;4.68;;
26488;SDS011;14169;43.684;10.484;2022-08-19T04:06:10;12.65;;;5.40;;
26488;SDS011;14169;43.684;10.484;2022-08-19T04:08:38;7.63;;;4.50;;
26488;SDS011;14169;43.684;10.484;2022-08-19T04:11:15;9.32;;;4.75;;
26488;SDS011;14169;43.684;10.484;2022-08-19T04:13:45;11.27;;;5.38;;
26488;SDS011;14169;43.684;10.484;2022-08-19T04:16:11;8.18;;;4.90;;
26488;SDS011;14169;43.684;10.484;2022-08-19T04:18:37;14.32;;;4.18;;
26488;SDS011;14169;43.684;10.484;2022-08-19T04:21:04;11.57;;;4.93;;
26488;SDS011;14169;43.684;10.484;2022-08-19T04:23:31;15.38;;;5.03;;
26488;SDS011;14169;43.684;10.484;2022-08-19T04:25:57;10.68;;;4.47;;
26488;SDS011;14169;43.684;10.484;2022-08-19T04:28:23;10.65;;;4.70;;
26488;SDS011;14169;43.684;10.484;2022-08-19T04:30:49;9.10;;;4.35;;
26488;SDS011;14169;43.684;10.484;2022-08-19T04:33:20;11.60;;;4.93;;
26488;SDS011;14169;43.684;10.484;2022-08-19T04:35:49;5.65;;;4.68;;
26488;SDS011;14169;43.684;10.484;2022-08-19T04:38:17;5.88;;;4.57;;
26488;SDS011;14169;43.684;10.484;2022-08-19T04:40:45;11.02;;;4.70;;
26488;SDS011;14169;43.684;10.484;2022-08-19T04:43:31;9.40;;;4.78;;
26488;SDS011;14169;43.684;10.484;2022-08-19T04:45:58;13.60;;;5.60;;
26488;SDS011;14169;43.684;10.484;2022-08-19T04:48:28;17.80;;;5.20;;
26488;SDS011;14169;43.684;10.484;2022-08-19T04:50:55;10.77;;;5.40;;
26488;SDS011;14169;43.684;10.484;2022-08-19T04:53:28;7.43;;;5.15;;
26488;SDS011;14169;43.684;10.484;2022-08-19T04:55:57;6.70;;;4.15;;
26488;SDS011;14169;43.684;10.484;2022-08-19T04:58:24;7.63;;;4.50;;
26488;SDS011;14169;43.684;10.484;2022-08-19T05:00:51;8.50;;;4.85;;
26488;SDS011;14169;43.684;10.484;2022-08-19T05:03:17;9.02;;;5.57;;
26488;SDS011;14169;43.684;10.484;2022-08-19T05:05:46;11.82;;;5.00;;
26488;SDS011;14169;43.684;10.484;2022-08-19T05:08:14;12.95;;;6.15;;
26488;SDS011;14169;43.684;10.484;2022-08-19T05:10:44;7.15;;;5.38;;
26488;SDS011;14169;43.684;10.484;2022-08-19T05:13:10;9.55;;;5.53;;
26488;SDS011;14169;43.684;10.484;2022-08-19T05:15:36;7.88;;;5.53;;
26488;SDS011;14169;43.684;10.484;2022-08-19T05:18:01;11.35;;;5.97;;
26488;SDS011;14169;43.684;10.484;2022-08-19T05:20:45;11.02;;;6.05;;
26488;SDS011;14169;43.684;10.484;2022-08-19T05:23:29;7.72;;;5.97;;
26488;SDS011;14169;43.684;10.484;2022-08-19T05:25:55;10.00;;;6.70;;
26488;SDS011;14169;43.684;10.484;2022-08-19T05:28:20;8.70;;;6.10;;
26488;SDS011;14169;43.684;10.484;2022-08-19T05:30:46;8.32;;;6.60;;
26488;SDS011;14169;43.684;10.484;2022-08-19T05:33:13;11.15;;;6.47;;
26488;SDS011;14169;43.684;10.484;2022-08-19T05:35:39;9.93;;;6.45;;
26488;SDS011;14169;43.684;10.484;2022-08-19T05:38:06;9.15;;;7.07;;
26488;SDS011;14169;43.684;10.484;2022-08-19T05:40:34;7.95;;;7.03;;
26488;SDS011;14169;43.684;10.484;2022-08-19T05:43:04;10.55;;;7.78;;
26488;SDS011;14169;43.684;10.484;2022-08-19T05:45:30;8.20;;;7.38;;
26488;SDS011;14169;43.684;10.484;2022-08-19T05:47:56;8.40;;;7.57;;
26488;SDS011;14169;43.684;10.484;2022-08-19T05:50:23;9.63;;;8.65;;
26488;SDS011;14169;43.684;10.484;2022-08-19T05:52:50;8.77;;;7.88;;
26488;SDS011;14169;43.684;10.484;2022-08-19T05:55:16;11.57;;;10.48;;
26488;SDS011;14169;43.684;10.484;2022-08-19T05:57:41;9.77;;;8.88;;
26488;SDS011;14169;43.684;10.484;2022-08-19T06:00:07;12.27;;;7.80;;
26488;SDS011;14169;43.684;10.484;2022-08-19T06:02:35;9.90;;;8.23;;
26488;SDS011;14169;43.684;10.484;2022-08-19T06:05:02;9.60;;;7.65;;
26488;SDS011;14169;43.684;10.484;2022-08-19T06:07:28;10.75;;;8.40;;
26488;SDS011;14169;43.684;10.484;2022-08-19T06:09:54;8.10;;;7.32;;
26488;SDS011;14169;43.684;10.484;2022-08-19T06:12:20;12.43;;;7.70;;
26488;SDS011;14169;43.684;10.484;2022-08-19T06:14:51;7.53;;;6.78;;
26488;SDS011;14169;43.684;10.484;2022-08-19T06:17:19;12.50;;;6.57;;
26488;SDS011;14169;43.684;10.484;2022-08-19T06:19:44;9.05;;;7.38;;
26488;SDS011;14169;43.684;10.484;2022-08-19T06:22:10;9.30;;;8.40;;
26488;SDS011;14169;43.684;10.484;2022-08-19T06:24:38;10.57;;;7.30;;
26488;SDS011;14169;43.684;10.484;2022-08-19T06:27:03;9.10;;;7.50;;
26488;SDS011;14169;43.684;10.484;2022-08-19T06:29:30;9.80;;;8.90;;
26488;SDS011;14169;43.684;10.484;2022-08-19T06:31:58;15.05;;;9.93;;
26488;SDS011;14169;43.684;10.484;2022-08-19T06:34:25;9.15;;;8.23;;
26488;SDS011;14169;43.684;10.484;2022-08-19T06:36:53;10.15;;;7.72;;
26488;SDS011;14169;43.684;10.484;2022-08-19T06:39:24;8.45;;;7.47;;
26488;SDS011;14169;43.684;10.484;2022-08-19T06:41:52;10.35;;;8.90;;
26488;SDS011;14169;43.684;10.484;2022-08-19T06:44:21;13.07;;;8.73;;
26488;SDS011;14169;43.684;10.484;2022-08-19T06:46:48;10.93;;;8.95;;
26488;SDS011;14169;43.684;10.484;2022-08-19T06:49:14;9.43;;;8.52;;
26488;SDS011;14169;43.684;10.484;2022-08-19T06:51:42;10.63;;;9.43;;
26488;SDS011;14169;43.684;10.484;2022-08-19T06:54:09;10.77;;;9.77;;
26488;SDS011;14169;43.684;10.484;2022-08-19T06:56:35;10.05;;;9.18;;
26488;SDS011;14169;43.684;10.484;2022-08-19T06:59:07;10.02;;;9.00;;
26488;SDS011;14169;43.684;10.484;2022-08-19T07:01:39;10.77;;;9.68;;
26488;SDS011;14169;43.684;10.484;2022-08-19T07:06:33;11.75;;;10.55;;
26488;SDS011;14169;43.684;10.484;2022-08-19T07:08:59;11.77;;;10.77;;
26488;SDS011;14169;43.684;10.484;2022-08-19T07:11:25;12.20;;;10.98;;
26488;SDS011;14169;43.684;10.484;2022-08-19T07:13:51;12.02;;;10.75;;
26488;SDS011;14169;43.684;10.484;2022-08-19T07:16:18;15.18;;;10.45;;
26488;SDS011;14169;43.684;10.484;2022-08-19T07:18:45;15.05;;;9.73;;
26488;SDS011;14169;43.684;10.484;2022-08-19T07:21:16;13.80;;;8.07;;
26488;SDS011;14169;43.684;10.484;2022-08-19T07:23:47;9.07;;;8.18;;
26488;SDS011;14169;43.684;10.484;2022-08-19T07:26:24;9.02;;;8.20;;
26488;SDS011;14169;43.684;10.484;2022-08-19T07:28:55;10.85;;;7.22;;
26488;SDS011;14169;43.684;10.484;2022-08-19T07:31:23;6.60;;;5.90;;
26488;SDS011;14169;43.684;10.484;2022-08-19T07:33:51;7.00;;;5.57;;
26488;SDS011;14169;43.684;10.484;2022-08-19T07:36:19;9.27;;;4.72;;
26488;SDS011;14169;43.684;10.484;2022-08-19T07:38:47;9.63;;;5.22;;
26488;SDS011;14169;43.684;10.484;2022-08-19T07:41:15;8.20;;;3.20;;
26488;SDS011;14169;43.684;10.484;2022-08-19T07:43:46;7.97;;;3.17;;
26488;SDS011;14169;43.684;10.484;2022-08-19T07:46:12;13.00;;;4.72;;
26488;SDS011;14169;43.684;10.484;2022-08-19T07:48:40;4.93;;;3.50;;
26488;SDS011;14169;43.684;10.484;2022-08-19T07:51:08;10.00;;;4.53;;
26488;SDS011;14169;43.684;10.484;2022-08-19T07:53:35;10.05;;;5.00;;
26488;SDS011;14169;43.684;10.484;2022-08-19T07:56:02;8.60;;;4.38;;
26488;SDS011;14169;43.684;10.484;2022-08-19T07:58:36;6.07;;;4.15;;
26488;SDS011;14169;43.684;10.484;2022-08-19T08:01:07;4.68;;;4.10;;
26488;SDS011;14169;43.684;10.484;2022-08-19T08:03:35;6.47;;;3.67;;
26488;SDS011;14169;43.684;10.484;2022-08-19T08:06:19;10.73;;;3.55;;
26488;SDS011;14169;43.684;10.484;2022-08-19T08:09:03;4.22;;;3.22;;
26488;SDS011;14169;43.684;10.484;2022-08-19T08:11:35;4.40;;;3.53;;
26488;SDS011;14169;43.684;10.484;2022-08-19T08:14:01;5.90;;;2.45;;
26488;SDS011;14169;43.684;10.484;2022-08-19T08:16:27;6.82;;;3.10;;
26488;SDS011;14169;43.684;10.484;2022-08-19T08:18:55;5.28;;;2.90;;
26488;SDS011;14169;43.684;10.484;2022-08-19T08:21:20;5.78;;;3.03;;
26488;SDS011;14169;43.684;10.484;2022-08-19T08:23:45;7.57;;;3.38;;
26488;SDS011;14169;43.684;10.484;2022-08-19T08:26:11;4.95;;;2.72;;
26488;SDS011;14169;43.684;10.484;2022-08-19T08:28:37;6.72;;;2.47;;
26488;SDS011;14169;43.684;10.484;2022-08-19T08:31:03;5.35;;;2.30;;
26488;SDS011;14169;43.684;10.484;2022-08-19T08:33:29;3.65;;;2.58;;
26488;SDS011;14169;43.684;10.484;2022-08-19T08:35:55;5.55;;;2.97;;
26488;SDS011;14169;43.684;10.484;2022-08-19T08:38:21;5.35;;;3.47;;
26488;SDS011;14169;43.684;10.484;2022-08-19T08:40:47;4.88;;;2.83;;
26488;SDS011;14169;43.684;10.484;2022-08-19T08:46:00;6.38;;;2.38;;
26488;SDS011;14169;43.684;10.484;2022-08-19T08:48:37;5.85;;;3.17;;
26488;SDS011;14169;43.684;10.484;2022-08-19T08:51:09;7.03;;;2.92;;
26488;SDS011;14169;43.684;10.484;2022-08-19T08:53:39;3.50;;;3.13;;
26488;SDS011;14169;43.684;10.484;2022-08-19T08:56:08;5.03;;;4.25;;
26488;SDS011;14169;43.684;10.484;2022-08-19T08:58:42;7.90;;;4.15;;
26488;SDS011;14169;43.684;10.484;2022-08-19T09:01:13;8.30;;;3.83;;
26488;SDS011;14169;43.684;10.484;2022-08-19T09:03:40;6.38;;;4.63;;
26488;SDS011;14169;43.684;10.484;2022-08-19T09:06:26;5.82;;;4.80;;
26488;SDS011;14169;43.684;10.484;2022-08-19T09:15:11;9.20;;;2.85;;
26488;SDS011;14169;43.684;10.484;2022-08-19T09:17:39;15.90;;;2.75;;
26488;SDS011;14169;43.684;10.484;2022-08-19T09:20:06;4.47;;;1.92;;
26488;SDS011;14169;43.684;10.484;2022-08-19T09:22:40;6.95;;;2.25;;
26488;SDS011;14169;43.684;10.484;2022-08-19T09:25:10;3.65;;;1.10;;
26488;SDS011;14169;43.684;10.484;2022-08-19T09:27:38;2.03;;;1.15;;
26488;SDS011;14169;43.684;10.484;2022-08-19T09:30:06;3.03;;;1.05;;
26488;SDS011;14169;43.684;10.484;2022-08-19T09:32:32;5.65;;;1.00;;
26488;SDS011;14169;43.684;10.484;2022-08-19T09:34:58;4.78;;;1.88;;
26488;SDS011;14169;43.684;10.484;2022-08-19T09:37:25;2.38;;;1.02;;
26488;SDS011;14169;43.684;10.484;2022-08-19T09:39:51;2.95;;;1.00;;
26488;SDS011;14169;43.684;10.484;2022-08-19T09:42:17;4.45;;;1.25;;
26488;SDS011;14169;43.684;10.484;2022-08-19T09:44:43;6.55;;;1.30;;
26488;SDS011;14169;43.684;10.484;2022-08-19T09:47:10;8.32;;;2.10;;
26488;SDS011;14169;43.684;10.484;2022-08-19T09:49:36;5.05;;;1.35;;
26488;SDS011;14169;43.684;10.484;2022-08-19T09:52:03;7.90;;;1.80;;
26488;SDS011;14169;43.684;10.484;2022-08-19T09:54:29;5.03;;;1.58;;
26488;SDS011;14169;43.684;10.484;2022-08-19T09:56:54;4.55;;;1.90;;
26488;SDS011;14169;43.684;10.484;2022-08-19T09:59:22;6.05;;;1.83;;
26488;SDS011;14169;43.684;10.484;2022-08-19T10:01:48;5.05;;;1.70;;
26488;SDS011;14169;43.684;10.484;2022-08-19T10:04:14;3.50;;;1.70;;
26488;SDS011;14169;43.684;10.484;2022-08-19T10:06:39;6.35;;;2.75;;
26488;SDS011;14169;43.684;10.484;2022-08-19T10:09:07;7.07;;;2.38;;
26488;SDS011;14169;43.684;10.484;2022-08-19T10:11:35;5.50;;;2.60;;
26488;SDS011;14169;43.684;10.484;2022-08-19T10:14:04;5.20;;;2.03;;
26488;SDS011;14169;43.684;10.484;2022-08-19T10:16:33;3.83;;;1.90;;
26488;SDS011;14169;43.684;10.484;2022-08-19T10:19:01;2.85;;;1.40;;
26488;SDS011;14169;43.684;10.484;2022-08-19T10:21:28;4.43;;;1.77;;
26488;SDS011;14169;43.684;10.484;2022-08-19T10:23:57;2.00;;;1.30;;
26488;SDS011;14169;43.684;10.484;2022-08-19T10:26:26;4.30;;;1.70;;
26488;SDS011;14169;43.684;10.484;2022-08-19T10:28:53;5.85;;;1.92;;
26488;SDS011;14169;43.684;10.484;2022-08-19T10:31:20;2.72;;;1.70;;
26488;SDS011;14169;43.684;10.484;2022-08-19T10:33:49;4.40;;;1.73;;
26488;SDS011;14169;43.684;10.484;2022-08-19T10:36:17;3.95;;;2.00;;
26488;SDS011;14169;43.684;10.484;2022-08-19T10:38:49;4.25;;;1.98;;
26488;SDS011;14169;43.684;10.484;2022-08-19T10:43:44;8.38;;;2.53;;
26488;SDS011;14169;43.684;10.484;2022-08-19T10:46:11;3.33;;;1.58;;
26488;SDS011;14169;43.684;10.484;2022-08-19T10:48:39;2.00;;;1.60;;
26488;SDS011;14169;43.684;10.484;2022-08-19T10:51:05;4.63;;;2.60;;
26488;SDS011;14169;43.684;10.484;2022-08-19T10:53:49;4.45;;;2.60;;
26488;SDS011;14169;43.684;10.484;2022-08-19T10:56:15;2.47;;;1.27;;
26488;SDS011;14169;43.684;10.484;2022-08-19T10:59:00;2.47;;;1.00;;
26488;SDS011;14169;43.684;10.484;2022-08-19T11:01:27;1.83;;;1.25;;
26488;SDS011;14169;43.684;10.484;2022-08-19T11:03:54;2.92;;;1.35;;
26488;SDS011;14169;43.684;10.484;2022-08-19T11:06:22;3.65;;;1.40;;
26488;SDS011;14169;43.684;10.484;2022-08-19T11:08:49;3.33;;;1.65;;
26488;SDS011;14169;43.684;10.484;2022-08-19T11:11:15;3.15;;;1.10;;
26488;SDS011;14169;43.684;10.484;2022-08-19T11:13:42;4.00;;;1.20;;
26488;SDS011;14169;43.684;10.484;2022-08-19T11:16:11;2.42;;;0.90;;
26488;SDS011;14169;43.684;10.484;2022-08-19T11:18:40;2.58;;;1.42;;
26488;SDS011;14169;43.684;10.484;2022-08-19T11:21:21;2.65;;;1.20;;
26488;SDS011;14169;43.684;10.484;2022-08-19T11:23:50;3.28;;;1.75;;
26488;SDS011;14169;43.684;10.484;2022-08-19T11:26:18;3.88;;;1.10;;
26488;SDS011;14169;43.684;10.484;2022-08-19T11:28:45;3.83;;;1.30;;
26488;SDS011;14169;43.684;10.484;2022-08-19T11:31:12;1.95;;;1.10;;
26488;SDS011;14169;43.684;10.484;2022-08-19T11:33:40;6.47;;;1.10;;
26488;SDS011;14169;43.684;10.484;2022-08-19T11:36:06;4.20;;;1.00;;
26488;SDS011;14169;43.684;10.484;2022-08-19T11:38:32;1.15;;;1.00;;
26488;SDS011;14169;43.684;10.484;2022-08-19T11:40:59;3.33;;;1.30;;
26488;SDS011;14169;43.684;10.484;2022-08-19T11:43:29;1.30;;;0.77;;
26488;SDS011;14169;43.684;10.484;2022-08-19T11:45:56;3.50;;;1.20;;
26488;SDS011;14169;43.684;10.484;2022-08-19T11:48:22;2.92;;;0.85;;
26488;SDS011;14169;43.684;10.484;2022-08-19T11:50:49;6.22;;;1.17;;
26488;SDS011;14169;43.684;10.484;2022-08-19T11:53:15;4.47;;;0.85;;
26488;SDS011;14169;43.684;10.484;2022-08-19T11:55:41;2.78;;;1.00;;
26488;SDS011;14169;43.684;10.484;2022-08-19T11:58:07;4.55;;;1.67;;
26488;SDS011;14169;43.684;10.484;2022-08-19T12:00:34;3.03;;;1.00;;
26488;SDS011;14169;43.684;10.484;2022-08-19T12:03:02;4.20;;;0.70;;
26488;SDS011;14169;43.684;10.484;2022-08-19T12:05:27;2.80;;;1.00;;
26488;SDS011;14169;43.684;10.484;2022-08-19T12:07:53;2.95;;;0.82;;
26488;SDS011;14169;43.684;10.484;2022-08-19T12:10:19;3.90;;;1.20;;
26488;SDS011;14169;43.684;10.484;2022-08-19T12:12:45;2.33;;;0.90;;
26488;SDS011;14169;43.684;10.484;2022-08-19T12:15:11;1.27;;;0.70;;
26488;SDS011;14169;43.684;10.484;2022-08-19T12:17:37;1.45;;;0.73;;
26488;SDS011;14169;43.684;10.484;2022-08-19T12:20:03;3.72;;;1.08;;
26488;SDS011;14169;43.684;10.484;2022-08-19T12:22:30;1.17;;;1.00;;
26488;SDS011;14169;43.684;10.484;2022-08-19T12:24:56;1.75;;;1.00;;
26488;SDS011;14169;43.684;10.484;2022-08-19T12:27:21;2.33;;;0.80;;
26488;SDS011;14169;43.684;10.484;2022-08-19T12:29:47;1.35;;;0.90;;
26488;SDS011;14169;43.684;10.484;2022-08-19T12:32:12;2.45;;;0.90;;
26488;SDS011;14169;43.684;10.484;2022-08-19T12:34:38;2.47;;;1.00;;
26488;SDS011;14169;43.684;10.484;2022-08-19T12:37:04;2.75;;;1.20;;
26488;SDS011;14169;43.684;10.484;2022-08-19T12:39:33;1.85;;;0.88;;
26488;SDS011;14169;43.684;10.484;2022-08-19T12:42:00;4.18;;;0.77;;
26488;SDS011;14169;43.684;10.484;2022-08-19T12:44:26;1.85;;;0.90;;
26488;SDS011;14169;43.684;10.484;2022-08-19T12:46:51;2.95;;;0.93;;
26488;SDS011;14169;43.684;10.484;2022-08-19T12:49:17;1.88;;;1.00;;
26488;SDS011;14169;43.684;10.484;2022-08-19T12:51:42;1.88;;;1.17;;
26488;SDS011;14169;43.684;10.484;2022-08-19T12:54:08;1.70;;;0.90;;
26488;SDS011;14169;43.684;10.484;2022-08-19T12:56:33;1.15;;;0.80;;
26488;SDS011;14169;43.684;10.484;2022-08-19T12:59:02;4.00;;;0.70;;
26488;SDS011;14169;43.684;10.484;2022-08-19T13:01:29;2.00;;;0.95;;
26488;SDS011;14169;43.684;10.484;2022-08-19T13:03:57;1.80;;;0.80;;
26488;SDS011;14169;43.684;10.484;2022-08-19T13:06:23;1.00;;;0.80;;
26488;SDS011;14169;43.684;10.484;2022-08-19T13:08:48;2.00;;;0.90;;
26488;SDS011;14169;43.684;10.484;2022-08-19T13:11:14;1.80;;;0.90;;
26488;SDS011;14169;43.684;10.484;2022-08-19T13:13:42;2.55;;;0.88;;
26488;SDS011;14169;43.684;10.484;2022-08-19T13:16:09;1.50;;;0.60;;
26488;SDS011;14169;43.684;10.484;2022-08-19T13:18:36;3.55;;;0.90;;
26488;SDS011;14169;43.684;10.484;2022-08-19T13:21:06;1.17;;;0.70;;
26488;SDS011;14169;43.684;10.484;2022-08-19T13:23:34;2.00;;;0.70;;
26488;SDS011;14169;43.684;10.484;2022-08-19T13:26:03;1.33;;;0.70;;
26488;SDS011;14169;43.684;10.484;2022-08-19T13:28:31;1.95;;;0.90;;
26488;SDS011;14169;43.684;10.484;2022-08-19T13:31:17;1.23;;;0.90;;
26488;SDS011;14169;43.684;10.484;2022-08-19T13:34:03;1.85;;;0.88;;
26488;SDS011;14169;43.684;10.484;2022-08-19T13:36:30;1.42;;;0.80;;
26488;SDS011;14169;43.684;10.484;2022-08-19T13:38:56;1.48;;;0.70;;
26488;SDS011;14169;43.684;10.484;2022-08-19T13:41:24;0.95;;;0.68;;
26488;SDS011;14169;43.684;10.484;2022-08-19T13:43:51;2.60;;;0.73;;
26488;SDS011;14169;43.684;10.484;2022-08-19T13:46:17;2.55;;;0.90;;
26488;SDS011;14169;43.684;10.484;2022-08-19T13:48:42;1.08;;;0.70;;
26488;SDS011;14169;43.684;10.484;2022-08-19T13:51:08;0.93;;;0.70;;
26488;SDS011;14169;43.684;10.484;2022-08-19T13:53:38;1.67;;;0.70;;
26488;SDS011;14169;43.684;10.484;2022-08-19T13:56:05;2.58;;;0.88;;
26488;SDS011;14169;43.684;10.484;2022-08-19T13:58:31;1.58;;;0.80;;
26488;SDS011;14169;43.684;10.484;2022-08-19T14:00:57;2.13;;;0.63;;
26488;SDS011;14169;43.684;10.484;2022-08-19T14:03:24;1.80;;;0.70;;
26488;SDS011;14169;43.684;10.484;2022-08-19T14:05:49;1.60;;;0.50;;
26488;SDS011;14169;43.684;10.484;2022-08-19T14:08:15;1.10;;;0.70;;
26488;SDS011;14169;43.684;10.484;2022-08-19T14:10:41;2.78;;;0.95;;
26488;SDS011;14169;43.684;10.484;2022-08-19T14:13:09;2.35;;;0.80;;
26488;SDS011;14169;43.684;10.484;2022-08-19T14:15:37;0.80;;;0.60;;
26488;SDS011;14169;43.684;10.484;2022-08-19T14:18:03;1.40;;;0.77;;
26488;SDS011;14169;43.684;10.484;2022-08-19T14:20:29;1.90;;;0.73;;
26488;SDS011;14169;43.684;10.484;2022-08-19T14:22:54;1.40;;;0.88;;
26488;SDS011;14169;43.684;10.484;2022-08-19T14:25:21;1.85;;;0.73;;
26488;SDS011;14169;43.684;10.484;2022-08-19T14:27:51;2.42;;;0.90;;
26488;SDS011;14169;43.684;10.484;2022-08-19T14:30:22;2.65;;;1.10;;
26488;SDS011;14169;43.684;10.484;2022-08-19T14:32:51;1.38;;;0.90;;
26488;SDS011;14169;43.684;10.484;2022-08-19T14:35:17;1.65;;;1.10;;
26488;SDS011;14169;43.684;10.484;2022-08-19T14:37:43;3.50;;;0.77;;
26488;SDS011;14169;43.684;10.484;2022-08-19T14:40:10;1.80;;;0.70;;
26488;SDS011;14169;43.684;10.484;2022-08-19T14:42:39;1.48;;;0.82;;
26488;SDS011;14169;43.684;10.484;2022-08-19T14:45:06;1.50;;;0.68;;
26488;SDS011;14169;43.684;10.484;2022-08-19T14:47:32;5.57;;;0.80;;